createdAt,value
2022-09-25T00:01:11.938Z,14.29
2022-09-25T00:03:39.976Z,14.27
2022-09-25T00:06:17.309Z,14.29
2022-09-25T00:08:44.919Z,14.22
2022-09-25T00:11:18.724Z,14.27
2022-09-25T00:13:47.409Z,14.26
2022-09-25T00:16:18.508Z,14.25
2022-09-25T00:19:04.198Z,14.14
2022-09-25T00:21:32.381Z,14.06
2022-09-25T00:24:00.794Z,14.00
2022-09-25T00:26:33.679Z,14.04
2022-09-25T00:29:01.274Z,14.00
2022-09-25T00:31:29.368Z,13.97
2022-09-25T00:34:04.764Z,13.92
2022-09-25T00:36:33.206Z,13.97
2022-09-25T00:39:00.399Z,13.92
2022-09-25T00:41:31.497Z,14.02
2022-09-25T00:44:00.727Z,13.90
2022-09-25T00:46:42.640Z,13.97
2022-09-25T00:49:21.900Z,13.95
2022-09-25T00:52:01.359Z,13.62
2022-09-25T00:54:37.155Z,13.52
2022-09-25T00:57:09.301Z,13.58
2022-09-25T00:59:41.751Z,13.55
2022-09-25T01:02:15.526Z,13.75
2022-09-25T01:04:46.151Z,13.79
2022-09-25T01:07:14.831Z,13.64
2022-09-25T01:09:41.833Z,13.63
2022-09-25T01:12:09.432Z,13.74
2022-09-25T01:14:37.454Z,13.74
2022-09-25T01:17:17.246Z,13.77
2022-09-25T01:20:21.650Z,13.74
2022-09-25T01:23:10.624Z,13.75
2022-09-25T01:26:28.467Z,13.57
2022-09-25T01:29:38.078Z,13.67
2022-09-25T01:32:28.778Z,13.63
2022-09-25T01:35:06.033Z,13.45
2022-09-25T01:37:44.307Z,13.53
2022-09-25T01:40:13.854Z,13.61
2022-09-25T01:42:51.592Z,13.50
2022-09-25T01:45:33.221Z,13.55
2022-09-25T01:48:01.600Z,13.56
2022-09-25T01:50:57.603Z,13.45
2022-09-25T01:53:31.880Z,13.47
2022-09-25T01:56:07.008Z,13.45
2022-09-25T01:59:19.096Z,13.45
2022-09-25T02:01:47.702Z,13.59
2022-09-25T02:04:22.632Z,13.61
2022-09-25T02:06:51.898Z,13.57
2022-09-25T02:09:37.517Z,13.57
2022-09-25T02:12:19.221Z,13.39
2022-09-25T02:14:54.756Z,13.47
2022-09-25T02:17:48.925Z,13.45
2022-09-25T02:20:33.886Z,13.33
2022-09-25T02:23:24.252Z,13.22
2022-09-25T02:26:03.044Z,13.38
2022-09-25T02:28:29.859Z,13.34
2022-09-25T02:30:59.294Z,13.45
2022-09-25T02:33:26.998Z,13.39
2022-09-25T02:35:54.414Z,13.39
2022-09-25T02:38:21.771Z,13.45
2022-09-25T02:40:59.438Z,13.46
2022-09-25T02:44:02.702Z,13.51
2022-09-25T02:46:46.691Z,13.48
2022-09-25T02:49:29.090Z,13.51
2022-09-25T02:52:46.739Z,13.57
2022-09-25T02:55:29.756Z,13.26
2022-09-25T02:58:09.094Z,13.50
2022-09-25T03:00:39.891Z,13.53
2022-09-25T03:03:11.118Z,13.52
2022-09-25T03:05:39.026Z,13.55
2022-09-25T03:08:26.159Z,13.62
2022-09-25T03:10:53.283Z,13.50
2022-09-25T03:13:31.205Z,13.66
2022-09-25T03:16:03.408Z,13.54
2022-09-25T03:18:31.377Z,13.59
2022-09-25T03:20:58.865Z,13.50
2022-09-25T03:23:26.097Z,13.47
2022-09-25T03:25:54.664Z,13.37
2022-09-25T03:28:22.859Z,13.32
2022-09-25T03:31:02.176Z,13.23
2022-09-25T03:33:36.154Z,13.38
2022-09-25T03:36:27.002Z,13.56
2022-09-25T03:38:58.827Z,13.58
2022-09-25T03:41:32.745Z,13.50
2022-09-25T03:43:59.729Z,13.51
2022-09-25T03:46:30.737Z,13.45
2022-09-25T03:48:58.572Z,13.49
2022-09-25T03:51:28.423Z,13.38
2022-09-25T03:53:55.933Z,13.39
2022-09-25T03:56:26.746Z,13.50
2022-09-25T03:58:54.555Z,13.30
2022-09-25T04:01:23.023Z,13.52
2022-09-25T04:03:50.811Z,13.50
2022-09-25T04:06:24.103Z,13.48
2022-09-25T04:08:51.972Z,13.46
2022-09-25T04:11:21.322Z,13.56
2022-09-25T04:13:48.168Z,13.60
2022-09-25T04:16:17.150Z,13.60
2022-09-25T04:18:44.461Z,13.55
2022-09-25T04:21:13.963Z,13.63
2022-09-25T04:23:41.228Z,13.62
2022-09-25T04:26:09.351Z,13.45
2022-09-25T04:28:36.820Z,13.50
2022-09-25T04:31:04.239Z,13.40
2022-09-25T04:33:47.364Z,13.54
2022-09-25T04:36:16.122Z,13.49
2022-09-25T04:38:43.821Z,13.60
2022-09-25T04:41:11.203Z,13.44
2022-09-25T04:43:38.468Z,13.38
2022-09-25T04:46:08.459Z,13.28
2022-09-25T04:48:36.008Z,13.37
2022-09-25T04:51:04.260Z,13.39
2022-09-25T04:53:35.583Z,13.31
2022-09-25T04:56:12.258Z,13.34
2022-09-25T04:58:48.653Z,13.29
2022-09-25T05:01:18.093Z,13.41
2022-09-25T05:03:52.428Z,13.33
2022-09-25T05:06:19.989Z,13.41
2022-09-25T05:08:50.356Z,13.40
2022-09-25T05:11:17.213Z,13.30
2022-09-25T05:13:46.600Z,13.28
2022-09-25T05:16:13.747Z,13.30
2022-09-25T05:18:40.569Z,13.31
2022-09-25T05:21:07.409Z,13.08
2022-09-25T05:23:34.277Z,13.16
2022-09-25T05:26:02.225Z,13.15
2022-09-25T05:28:33.023Z,13.21
2022-09-25T05:31:03.469Z,13.27
2022-09-25T05:33:35.277Z,13.36
2022-09-25T05:36:07.335Z,13.36
2022-09-25T05:38:39.191Z,13.41
2022-09-25T05:41:08.650Z,13.27
2022-09-25T05:43:40.816Z,13.43
2022-09-25T05:46:08.034Z,13.33
2022-09-25T05:48:35.041Z,13.32
2022-09-25T05:51:02.708Z,13.39
2022-09-25T05:53:30.890Z,13.36
2022-09-25T05:56:03.456Z,13.20
2022-09-25T05:58:33.650Z,13.45
2022-09-25T06:01:03.185Z,13.49
2022-09-25T06:03:30.557Z,13.36
2022-09-25T06:05:59.379Z,13.46
2022-09-25T06:08:27.560Z,13.45
2022-09-25T06:10:55.015Z,13.35
2022-09-25T06:13:25.597Z,13.49
2022-09-25T06:15:53.527Z,13.47
2022-09-25T06:18:22.934Z,13.43
2022-09-25T06:20:50.485Z,13.53
2022-09-25T06:23:18.561Z,13.54
2022-09-25T06:25:45.606Z,13.57
2022-09-25T06:28:12.569Z,13.54
2022-09-25T06:30:39.404Z,13.57
2022-09-25T06:33:13.085Z,13.52
2022-09-25T06:35:45.700Z,13.61
2022-09-25T06:38:13.386Z,13.64
2022-09-25T06:40:41.919Z,13.59
2022-09-25T06:43:16.498Z,13.33
2022-09-25T06:45:43.853Z,13.54
2022-09-25T06:48:13.722Z,13.56
2022-09-25T06:50:53.129Z,13.50
2022-09-25T06:53:22.091Z,13.52
2022-09-25T06:55:49.764Z,13.56
2022-09-25T06:58:22.243Z,13.57
2022-09-25T07:00:51.579Z,13.55
2022-09-25T07:03:37.767Z,13.72
2022-09-25T07:06:07.493Z,13.76
2022-09-25T07:08:34.918Z,13.80
2022-09-25T07:11:02.056Z,13.71
2022-09-25T07:13:31.998Z,13.81
2022-09-25T07:16:02.427Z,13.71
2022-09-25T07:18:30.260Z,13.86
2022-09-25T07:21:02.337Z,13.83
2022-09-25T07:23:31.062Z,13.69
2022-09-25T07:26:05.906Z,13.83
2022-09-25T07:28:33.100Z,13.85
2022-09-25T07:31:00.032Z,13.77
2022-09-25T07:33:26.881Z,13.86
2022-09-25T07:35:53.746Z,13.90
2022-09-25T07:38:21.632Z,13.90
2022-09-25T07:40:48.517Z,13.79
2022-09-25T07:43:15.418Z,13.87
2022-09-25T07:45:52.234Z,13.78
2022-09-25T07:48:21.421Z,13.93
2022-09-25T07:50:50.719Z,13.94
2022-09-25T07:53:21.035Z,13.95
2022-09-25T07:55:48.196Z,13.99
2022-09-25T07:58:15.298Z,13.93
2022-09-25T08:00:42.101Z,14.02
2022-09-25T08:03:11.211Z,14.11
2022-09-25T08:05:38.042Z,14.04
2022-09-25T08:08:04.846Z,14.13
2022-09-25T08:10:32.199Z,14.17
2022-09-25T08:12:59.183Z,14.00
2022-09-25T08:15:26.152Z,14.15
2022-09-25T08:17:53.534Z,14.14
2022-09-25T08:20:20.380Z,14.27
2022-09-25T08:22:47.619Z,14.30
2022-09-25T08:25:14.600Z,14.19
2022-09-25T08:27:41.457Z,14.28
2022-09-25T08:30:10.641Z,14.21
2022-09-25T08:32:37.696Z,14.37
2022-09-25T08:35:05.579Z,14.32
2022-09-25T08:37:32.477Z,14.40
2022-09-25T08:40:00.012Z,14.36
2022-09-25T08:42:36.179Z,14.37
2022-09-25T08:45:50.217Z,14.21
2022-09-25T08:48:47.952Z,14.31
2022-09-25T08:51:15.003Z,14.20
2022-09-25T08:53:43.540Z,14.43
2022-09-25T08:56:15.672Z,14.40
2022-09-25T08:59:10.196Z,14.49
2022-09-25T09:01:46.332Z,14.51
2022-09-25T09:04:19.783Z,14.52
2022-09-25T09:07:21.699Z,14.61
2022-09-25T09:10:08.026Z,14.71
2022-09-25T09:12:41.840Z,14.63
2022-09-25T09:15:19.476Z,14.78
2022-09-25T09:17:46.255Z,14.70
2022-09-25T09:20:20.078Z,14.72
2022-09-25T09:22:53.223Z,14.84
2022-09-25T09:25:45.055Z,14.92
2022-09-25T09:28:49.087Z,15.09
2022-09-25T09:31:46.735Z,15.10
2022-09-25T09:35:06.980Z,15.12
2022-09-25T09:37:53.882Z,15.23
2022-09-25T09:41:04.628Z,15.29
2022-09-25T09:44:01.825Z,15.44
2022-09-25T09:47:06.035Z,15.37
2022-09-25T09:50:21.727Z,15.42
2022-09-25T09:53:09.078Z,15.40
2022-09-25T09:55:44.881Z,15.47
2022-09-25T09:58:30.613Z,15.54
2022-09-25T10:01:03.624Z,15.47
2022-09-25T10:03:45.851Z,15.54
2022-09-25T10:06:20.506Z,15.47
2022-09-25T10:08:49.690Z,15.41
2022-09-25T10:11:19.060Z,15.43
2022-09-25T10:13:46.942Z,15.32
2022-09-25T10:16:23.676Z,15.38
2022-09-25T10:19:10.144Z,15.33
2022-09-25T10:21:53.334Z,15.37
2022-09-25T10:25:04.649Z,15.36
2022-09-25T10:27:41.300Z,15.36
2022-09-25T10:30:10.868Z,15.44
2022-09-25T10:32:58.349Z,15.30
2022-09-25T10:35:39.844Z,15.38
2022-09-25T10:38:21.619Z,15.32
2022-09-25T10:41:14.844Z,15.38
2022-09-25T10:44:02.350Z,15.41
2022-09-25T10:47:06.263Z,15.22
2022-09-25T10:50:06.457Z,15.37
2022-09-25T10:52:52.848Z,15.28
2022-09-25T10:55:28.665Z,15.32
2022-09-25T10:58:10.710Z,15.36
2022-09-25T11:00:53.921Z,15.33
2022-09-25T11:03:47.625Z,15.21
2022-09-25T11:06:27.812Z,15.29
2022-09-25T11:09:10.184Z,15.27
2022-09-25T11:11:39.253Z,15.30
2022-09-25T11:14:19.249Z,15.29
2022-09-25T11:16:57.834Z,15.36
2022-09-25T11:19:37.506Z,15.34
2022-09-25T11:22:30.494Z,15.45
2022-09-25T11:25:14.589Z,15.32
2022-09-25T11:27:53.359Z,15.43
2022-09-25T11:30:22.612Z,15.38
2022-09-25T11:33:29.796Z,15.43
2022-09-25T11:36:19.579Z,15.40
2022-09-25T11:39:13.640Z,15.43
2022-09-25T11:41:48.122Z,15.35
2022-09-25T11:44:22.873Z,15.40
2022-09-25T11:47:41.075Z,15.52
2022-09-25T11:50:16.342Z,15.53
2022-09-25T11:53:13.284Z,15.31
2022-09-25T11:56:20.268Z,15.52
2022-09-25T11:59:18.088Z,15.44
2022-09-25T12:02:03.854Z,15.32
2022-09-25T12:04:59.510Z,15.30
2022-09-25T12:07:52.920Z,15.29
2022-09-25T12:11:04.727Z,15.19
2022-09-25T12:13:44.652Z,15.27
2022-09-25T12:16:23.874Z,15.38
2022-09-25T12:19:23.574Z,15.23
2022-09-25T12:22:05.683Z,15.22
2022-09-25T12:24:42.107Z,15.14
2022-09-25T12:27:18.140Z,15.26
2022-09-25T12:30:18.054Z,15.31
2022-09-25T12:33:05.683Z,15.36
2022-09-25T12:36:08.939Z,15.31
2022-09-25T12:38:47.872Z,15.36
2022-09-25T12:41:29.750Z,15.44
2022-09-25T12:44:27.119Z,15.52
2022-09-25T12:47:11.141Z,15.49
2022-09-25T12:50:12.008Z,15.52
2022-09-25T12:52:57.394Z,15.51
2022-09-25T12:55:33.120Z,15.48
2022-09-25T12:58:27.848Z,15.54
2022-09-25T13:01:09.289Z,15.35
2022-09-25T13:03:49.966Z,15.62
2022-09-25T13:06:35.689Z,15.63
2022-09-25T13:09:18.894Z,15.67
2022-09-25T13:12:00.502Z,15.70
2022-09-25T13:14:45.584Z,15.63
2022-09-25T13:17:15.808Z,15.88
2022-09-25T13:19:42.609Z,15.81
2022-09-25T13:22:25.328Z,15.81
2022-09-25T13:25:03.595Z,15.82
2022-09-25T13:27:42.456Z,15.90
2022-09-25T13:30:25.391Z,15.92
2022-09-25T13:32:55.048Z,15.96
2022-09-25T13:35:23.936Z,15.96
2022-09-25T13:37:54.403Z,15.91
2022-09-25T13:40:45.985Z,16.00
2022-09-25T13:43:24.707Z,16.07
2022-09-25T13:46:26.084Z,16.05
2022-09-25T13:48:55.355Z,16.01
2022-09-25T13:51:22.189Z,16.07
2022-09-25T13:54:03.758Z,15.88
2022-09-25T13:56:33.582Z,15.94
2022-09-25T13:59:03.131Z,15.78
2022-09-25T14:01:53.983Z,15.81
2022-09-25T14:04:33.144Z,15.76
2022-09-25T14:07:24.321Z,15.81
2022-09-25T14:09:58.974Z,15.65
2022-09-25T14:12:48.151Z,15.67
2022-09-25T14:15:23.940Z,15.70
2022-09-25T14:17:53.942Z,15.82
2022-09-25T14:20:42.558Z,15.80
2022-09-25T14:23:27.009Z,15.90
2022-09-25T14:26:22.131Z,15.95
2022-09-25T14:28:51.366Z,16.02
2022-09-25T14:31:34.274Z,16.09
2022-09-25T14:34:13.317Z,16.02
2022-09-25T14:37:03.187Z,16.11
2022-09-25T14:40:16.825Z,15.96
2022-09-25T14:43:17.029Z,16.15
2022-09-25T14:46:13.885Z,16.08
2022-09-25T14:49:24.153Z,16.07
2022-09-25T14:52:00.458Z,16.09
2022-09-25T14:54:38.172Z,16.10
2022-09-25T14:57:08.326Z,16.15
2022-09-25T14:59:50.385Z,16.06
2022-09-25T15:02:36.834Z,15.97
2022-09-25T15:05:27.305Z,16.09
2022-09-25T15:07:58.847Z,16.10
2022-09-25T15:10:32.646Z,16.15
2022-09-25T15:13:18.404Z,16.18
2022-09-25T15:16:13.511Z,16.18
2022-09-25T15:18:43.749Z,16.25
2022-09-25T15:21:30.965Z,16.27
2022-09-25T15:24:04.842Z,16.15
2022-09-25T15:26:33.484Z,16.12
2022-09-25T15:29:00.373Z,16.05
2022-09-25T15:31:36.332Z,15.99
2022-09-25T15:34:13.220Z,16.12
2022-09-25T15:36:40.249Z,16.03
2022-09-25T15:39:25.924Z,15.92
2022-09-25T15:41:52.891Z,15.89
2022-09-25T15:44:22.274Z,16.07
2022-09-25T15:46:52.267Z,16.05
2022-09-25T15:49:41.630Z,16.13
2022-09-25T15:52:33.732Z,16.10
2022-09-25T15:55:05.697Z,16.18
2022-09-25T15:57:33.598Z,16.14
2022-09-25T16:00:26.404Z,16.11
2022-09-25T16:03:25.715Z,16.21
2022-09-25T16:05:52.642Z,16.22
2022-09-25T16:08:25.035Z,16.22
2022-09-25T16:11:26.617Z,16.10
2022-09-25T16:14:30.864Z,16.11
2022-09-25T16:16:59.926Z,16.00
2022-09-25T16:19:32.535Z,15.92
2022-09-25T16:22:14.354Z,16.00
2022-09-25T16:24:42.074Z,15.98
2022-09-25T16:27:24.559Z,15.96
2022-09-25T16:29:52.056Z,15.94
2022-09-25T16:32:21.018Z,15.81
2022-09-25T16:35:06.407Z,15.85
2022-09-25T16:37:35.742Z,15.86
2022-09-25T16:40:29.115Z,15.96
2022-09-25T16:42:58.135Z,15.83
2022-09-25T16:45:33.983Z,15.76
2022-09-25T16:48:30.385Z,15.77
2022-09-25T16:51:01.124Z,15.79
2022-09-25T16:53:29.377Z,15.77
2022-09-25T16:55:57.955Z,15.64
2022-09-25T16:58:25.025Z,15.66
2022-09-25T17:00:52.010Z,15.63
2022-09-25T17:03:19.281Z,15.50
2022-09-25T17:05:46.086Z,15.46
2022-09-25T17:08:24.264Z,15.52
2022-09-25T17:10:52.708Z,15.44
2022-09-25T17:13:27.443Z,15.44
2022-09-25T17:15:56.597Z,15.31
2022-09-25T17:18:23.447Z,15.41
2022-09-25T17:20:55.545Z,15.23
2022-09-25T17:23:24.944Z,15.24
2022-09-25T17:26:01.006Z,15.29
2022-09-25T17:28:28.052Z,14.98
2022-09-25T17:30:54.981Z,15.19
2022-09-25T17:33:23.343Z,15.14
2022-09-25T17:35:59.949Z,15.13
2022-09-25T17:38:27.496Z,15.19
2022-09-25T17:40:59.367Z,15.23
2022-09-25T17:43:28.693Z,15.11
2022-09-25T17:45:58.531Z,15.19
2022-09-25T17:48:28.736Z,15.19
2022-09-25T17:51:10.365Z,15.12
2022-09-25T17:53:37.271Z,15.11
2022-09-25T17:56:04.322Z,15.05
2022-09-25T17:58:32.054Z,14.96
2022-09-25T18:01:00.968Z,15.10
2022-09-25T18:03:30.239Z,15.11
2022-09-25T18:05:57.770Z,15.04
2022-09-25T18:08:24.729Z,15.03
2022-09-25T18:10:58.664Z,14.97
2022-09-25T18:13:25.490Z,14.79
2022-09-25T18:16:00.460Z,14.80
2022-09-25T18:18:49.995Z,14.90
2022-09-25T18:21:36.743Z,14.90
2022-09-25T18:24:03.931Z,14.79
2022-09-25T18:26:31.548Z,14.77
2022-09-25T18:28:58.549Z,14.57
2022-09-25T18:31:25.596Z,14.64
2022-09-25T18:33:54.782Z,14.76
2022-09-25T18:36:22.630Z,14.61
2022-09-25T18:38:49.489Z,14.68
2022-09-25T18:41:16.535Z,14.57
2022-09-25T18:43:43.847Z,14.55
2022-09-25T18:46:10.874Z,14.73
2022-09-25T18:48:37.853Z,14.65
2022-09-25T18:51:07.143Z,14.69
2022-09-25T18:53:34.090Z,14.62
2022-09-25T18:56:01.154Z,14.71
2022-09-25T18:58:30.234Z,14.72
2022-09-25T19:00:57.139Z,14.72
2022-09-25T19:03:24.052Z,14.65
2022-09-25T19:06:03.011Z,14.67
2022-09-25T19:08:34.140Z,14.70
2022-09-25T19:11:00.993Z,14.59
2022-09-25T19:13:29.298Z,14.71
2022-09-25T19:15:57.295Z,14.65
2022-09-25T19:18:24.262Z,14.67
2022-09-25T19:20:54.285Z,14.63
2022-09-25T19:23:22.812Z,14.53
2022-09-25T19:25:59.090Z,14.65
2022-09-25T19:28:27.121Z,14.71
2022-09-25T19:31:12.437Z,14.73
2022-09-25T19:33:39.908Z,14.72
2022-09-25T19:36:31.527Z,14.66
2022-09-25T19:38:59.790Z,14.67
2022-09-25T19:41:31.028Z,14.61
2022-09-25T19:44:01.807Z,14.56
2022-09-25T19:46:29.953Z,14.57
2022-09-25T19:48:56.827Z,14.58
2022-09-25T19:51:25.474Z,14.57
2022-09-25T19:53:53.272Z,14.54
2022-09-25T19:56:20.438Z,14.55
2022-09-25T19:58:50.716Z,14.46
2022-09-25T20:01:26.072Z,14.53
2022-09-25T20:03:54.632Z,14.46
2022-09-25T20:06:22.911Z,14.47
2022-09-25T20:08:49.911Z,14.37
2022-09-25T20:11:24.828Z,14.49
2022-09-25T20:13:53.683Z,14.29
2022-09-25T20:16:25.087Z,14.48
2022-09-25T20:18:57.606Z,14.30
2022-09-25T20:21:31.773Z,14.51
2022-09-25T20:24:01.530Z,14.40
2022-09-25T20:26:29.886Z,14.38
2022-09-25T20:29:04.510Z,14.31
2022-09-25T20:31:32.722Z,14.17
2022-09-25T20:33:59.696Z,14.19
2022-09-25T20:36:26.669Z,14.16
2022-09-25T20:38:55.988Z,14.07
2022-09-25T20:41:25.605Z,14.11
2022-09-25T20:43:55.438Z,14.10
2022-09-25T20:46:23.936Z,14.21
2022-09-25T20:48:53.039Z,14.14
2022-09-25T20:51:26.933Z,14.18
2022-09-25T20:53:59.684Z,14.22
2022-09-25T20:56:29.315Z,14.16
2022-09-25T20:58:57.249Z,14.08
2022-09-25T21:01:32.216Z,14.18
2022-09-25T21:04:01.216Z,14.18
2022-09-25T21:06:31.325Z,14.03
2022-09-25T21:09:02.744Z,14.02
2022-09-25T21:11:32.329Z,14.04
2022-09-25T21:14:04.696Z,13.83
2022-09-25T21:16:33.173Z,13.83
2022-09-25T21:19:04.198Z,13.82
2022-09-25T21:21:33.546Z,13.95
2022-09-25T21:24:02.210Z,13.93
2022-09-25T21:26:31.166Z,13.98
2022-09-25T21:29:01.372Z,13.99
2022-09-25T21:31:38.386Z,14.01
2022-09-25T21:34:11.048Z,13.90
2022-09-25T21:36:39.060Z,13.91
2022-09-25T21:39:07.248Z,13.95
2022-09-25T21:41:34.576Z,13.94
2022-09-25T21:44:05.236Z,13.69
2022-09-25T21:46:33.187Z,13.93
2022-09-25T21:49:02.916Z,13.88
2022-09-25T21:51:36.637Z,13.89
2022-09-25T21:54:03.744Z,13.91
2022-09-25T21:56:32.045Z,13.88
2022-09-25T21:59:08.291Z,13.78
2022-09-25T22:01:38.776Z,13.95
2022-09-25T22:04:07.684Z,13.89
2022-09-25T22:06:43.677Z,13.86
2022-09-25T22:09:14.404Z,13.84
2022-09-25T22:11:42.580Z,13.90
2022-09-25T22:14:15.515Z,13.85
2022-09-25T22:16:45.925Z,13.82
2022-09-25T22:19:18.518Z,13.53
2022-09-25T22:21:47.588Z,13.86
2022-09-25T22:24:15.024Z,13.74
2022-09-25T22:26:45.186Z,13.77
2022-09-25T22:29:12.829Z,13.78
2022-09-25T22:31:43.560Z,13.82
2022-09-25T22:34:28.651Z,13.79
2022-09-25T22:37:00.006Z,13.74
2022-09-25T22:39:28.682Z,13.62
2022-09-25T22:41:56.741Z,13.81
2022-09-25T22:44:23.531Z,13.80
2022-09-25T22:46:50.526Z,13.65
2022-09-25T22:49:17.687Z,13.68
2022-09-25T22:51:44.654Z,13.61
2022-09-25T22:54:14.451Z,13.64
2022-09-25T22:56:42.074Z,13.64
2022-09-25T22:59:16.086Z,13.46
2022-09-25T23:01:54.956Z,13.68
2022-09-25T23:04:24.510Z,13.57
2022-09-25T23:06:52.013Z,13.52
2022-09-25T23:09:24.846Z,13.65
2022-09-25T23:11:56.243Z,13.57
2022-09-25T23:14:30.904Z,13.50
2022-09-25T23:16:58.759Z,13.63
2022-09-25T23:19:26.180Z,13.59
2022-09-25T23:21:54.304Z,13.69
2022-09-25T23:24:22.510Z,13.68
2022-09-25T23:26:49.897Z,13.56
2022-09-25T23:29:19.241Z,13.58
2022-09-25T23:31:47.710Z,13.75
2022-09-25T23:34:15.615Z,13.74
2022-09-25T23:36:42.888Z,13.71
2022-09-25T23:39:16.734Z,13.67
2022-09-25T23:41:43.851Z,13.55
2022-09-25T23:44:11.614Z,13.68
2022-09-25T23:46:41.529Z,13.61
2022-09-25T23:49:09.197Z,13.50
2022-09-25T23:51:36.277Z,13.54
2022-09-25T23:54:03.834Z,13.49
2022-09-25T23:56:33.105Z,13.59
2022-09-25T23:59:01.593Z,13.65
